Time;durP1;ratioP1;P1;durP2;ratioP2;P2;SDS_P1;SDS_P2;PMS_P1;PMS_P2;Temp;Humidity;BMP_temperature;BMP_pressure;BME280_temperature;BME280_humidity;BME280_pressure;Samples;Min_cycle;Max_cycle;Signal;HPM_P1;HPM_P2
2022/07/27 00:02:02;;;;;;;;;;;;;;;;;;5056380;28;19921;-77
2022/07/27 00:04:27;;;;;;;;;;;;;;;;;;5056428;28;19923;-77
2022/07/27 00:06:53;;;;;;;;;;;;;;;;;;5055097;28;19928;-78
2022/07/27 00:09:18;;;;;;;;;;;;;;;;;;5055228;28;20417;-77
2022/07/27 00:11:44;;;;;;;;;;;;;;;;;;5054925;28;20302;-77
2022/07/27 00:14:09;;;;;;;;;;;;;;;;;;5056470;28;20237;-77
2022/07/27 00:16:34;;;;;;;;;;;;;;;;;;5056052;28;19920;-77
2022/07/27 00:18:59;;;;;;;;;;;;;;;;;;5054784;28;19970;-77
2022/07/27 00:21:25;;;;;;;;;;;;;;;;;;5055223;28;19921;-77
2022/07/27 00:23:51;;;;;;;;;;;;;;;;;;5055921;28;19931;-77
2022/07/27 00:26:16;;;;;;;;;;;;;;;;;;5055702;28;19935;-77
2022/07/27 00:28:41;;;;;;;;;;;;;;;;;;5055852;28;19932;-77
2022/07/27 00:31:07;;;;;;;;;;;;;;;;;;5054944;28;19917;-77
2022/07/27 00:33:32;;;;;;;;;;;;;;;;;;5055108;28;20356;-77
2022/07/27 00:35:57;;;;;;;;;;;;;;;;;;5056033;28;19923;-77
2022/07/27 00:38:23;;;;;;;;;;;;;;;;;;5056206;28;20342;-77
2022/07/27 00:40:49;;;;;;;;;;;;;;;;;;5054349;28;20007;-77
2022/07/27 00:43:14;;;;;;;;;;;;;;;;;;5055826;28;19971;-78
2022/07/27 00:45:40;;;;;;;;;;;;;;;;;;5055659;28;20272;-78
2022/07/27 00:48:05;;;;;;;;;;;;;;;;;;5055493;28;19924;-78
2022/07/27 00:50:31;;;;;;;;;;;;;;;;;;5055720;28;19924;-77
2022/07/27 00:52:56;;;;;;;;;;;;;;;;;;5055397;28;19924;-78
2022/07/27 00:55:21;;;;;;;;;;;;;;;;;;5055766;28;20054;-78
2022/07/27 00:57:46;;;;;;;;;;;;;;;;;;5054031;28;19928;-78
2022/07/27 01:00:12;;;;;;;;;;;;;;;;;;5053953;28;19917;-77
2022/07/27 01:02:37;;;;;;;;;;;;;;;;;;5054260;28;19924;-78
2022/07/27 01:05:03;;;;;;;;;;;;;;;;;;5053838;28;19923;-78
2022/07/27 01:07:31;;;;;;;;;;;;;;;;;;5054374;28;20310;-77
2022/07/27 01:09:56;;;;;;;;;;;;;;;;;;5055155;28;19916;-78
2022/07/27 01:12:22;;;;;;;;;;;;;;;;;;5053872;28;20003;-78
2022/07/27 01:14:48;;;;;;;;;;;;;;;;;;5053803;28;20372;-77
2022/07/27 01:17:13;;;;;;;;;;;;;;;;;;5054017;28;19913;-78
2022/07/27 01:19:38;;;;;;;;;;;;;;;;;;5055004;28;19916;-78
2022/07/27 01:22:05;;;;;;;;;;;;;;;;;;5054939;28;19925;-78
2022/07/27 01:24:30;;;;;;;;;;;;;;;;;;5053559;28;19999;-78
2022/07/27 01:26:56;;;;;;;;;;;;;;;;;;5053593;28;20331;-78
2022/07/27 01:29:21;;;;;;;;;;;;;;;;;;5053786;28;19917;-78
2022/07/27 01:31:46;;;;;;;;;;;;;;;;;;5053533;28;20008;-77
2022/07/27 01:34:11;;;;;;;;;;;;;;;;;;5053443;28;19912;-78
2022/07/27 01:36:37;;;;;;;;;;;;;;;;;;5036904;28;19912;-77
2022/07/27 01:39:02;;;;;;;;;;;;;;;;;;5053235;28;19917;-77
2022/07/27 01:41:28;;;;;;;;;;;;;;;;;;5053712;28;20370;-77
2022/07/27 01:43:53;;;;;;;;;;;;;;;;;;5055049;28;19924;-77
2022/07/27 01:46:18;;;;;;;;;;;;;;;;;;5053194;28;20330;-77
2022/07/27 01:48:43;;;;;;;;;;;;;;;;;;5054581;28;19921;-77
2022/07/27 01:51:09;;;;;;;;;;;;;;;;;;5053148;28;19920;-77
2022/07/27 01:53:34;;;;;;;;;;;;;;;;;;5053131;28;20351;-78
2022/07/27 01:55:59;;;;;;;;;;;;;;;;;;5052400;28;20012;-77
2022/07/27 01:58:24;;;;;;;;;;;;;;;;;;5053061;28;19974;-77
2022/07/27 02:00:50;;;;;;;;;;;;;;;;;;5052938;28;20360;-76
2022/07/27 02:03:15;;;;;;;;;;;;;;;;;;5054415;28;19917;-78
2022/07/27 02:05:40;;;;;;;;;;;;;;;;;;5052828;28;19957;-77
2022/07/27 02:08:06;;;;;;;;;;;;;;;;;;5052649;28;20019;-78
2022/07/27 02:10:32;;;;;;;;;;;;;;;;;;5054133;28;19917;-77
2022/07/27 02:12:57;;;;;;;;;;;;;;;;;;5052562;28;19912;-77
2022/07/27 02:15:23;;;;;;;;;;;;;;;;;;5054088;28;19974;-77
2022/07/27 02:17:48;;;;;;;;;;;;;;;;;;5052592;28;19913;-77
2022/07/27 02:20:14;;;;;;;;;;;;;;;;;;5054069;28;19972;-77
2022/07/27 02:22:40;;;;;;;;;;;;;;;;;;5035744;28;19916;-77
2022/07/27 02:25:05;;;;;;;;;;;;;;;;;;5052376;28;19986;-77
2022/07/27 02:27:31;;;;;;;;;;;;;;;;;;5052223;28;19921;-77
2022/07/27 02:29:56;;;;;;;;;;;;;;;;;;5053799;28;19913;-77
2022/07/27 02:32:22;;;;;;;;;;;;;;;;;;5052549;28;19996;-78
2022/07/27 02:34:47;;;;;;;;;;;;;;;;;;5052413;28;19920;-77
2022/07/27 02:37:12;;;;;;;;;;;;;;;;;;5052180;28;20375;-77
2022/07/27 02:39:38;;;;;;;;;;;;;;;;;;5052428;28;19920;-77
2022/07/27 02:42:03;;;;;;;;;;;;;;;;;;5053867;28;19952;-77
2022/07/27 02:44:28;;;;;;;;;;;;;;;;;;5051984;28;20070;-78
2022/07/27 02:46:54;;;;;;;;;;;;;;;;;;5051897;28;19939;-77
2022/07/27 02:49:19;;;;;;;;;;;;;;;;;;5051894;28;19967;-78
2022/07/27 02:51:47;;;;;;;;;;;;;;;;;;5053073;28;19945;-77
2022/07/27 02:54:12;;;;;;;;;;;;;;;;;;5051879;28;19921;-77
2022/07/27 02:56:37;;;;;;;;;;;;;;;;;;5051917;28;20062;-78
2022/07/27 02:59:03;;;;;;;;;;;;;;;;;;5053211;28;19932;-78
2022/07/27 03:01:28;;;;;;;;;;;;;;;;;;5035182;28;19912;-77
2022/07/27 03:03:53;;;;;;;;;;;;;;;;;;5051810;28;19925;-77
2022/07/27 03:06:18;;;;;;;;;;;;;;;;;;5053227;28;19924;-78
2022/07/27 03:08:46;;;;;;;;;;;;;;;;;;5051293;28;20293;-78
2022/07/27 03:11:11;;;;;;;;;;;;;;;;;;5035031;28;19963;-78
2022/07/27 03:13:36;;;;;;;;;;;;;;;;;;5053213;28;19971;-78
2022/07/27 03:16:01;;;;;;;;;;;;;;;;;;5053178;28;19916;-77
2022/07/27 03:18:27;;;;;;;;;;;;;;;;;;5051576;28;19924;-78
2022/07/27 03:20:52;;;;;;;;;;;;;;;;;;5051534;28;19914;-78
2022/07/27 03:23:18;;;;;;;;;;;;;;;;;;5052965;28;20375;-78
2022/07/27 03:25:43;;;;;;;;;;;;;;;;;;5051496;28;20015;-77
2022/07/27 03:28:08;;;;;;;;;;;;;;;;;;5053140;28;19925;-78
2022/07/27 03:30:33;;;;;;;;;;;;;;;;;;5053729;28;20077;-78
2022/07/27 03:32:59;;;;;;;;;;;;;;;;;;5055877;28;19924;-77
2022/07/27 03:35:24;;;;;;;;;;;;;;;;;;5039012;28;19920;-78
2022/07/27 03:37:49;;;;;;;;;;;;;;;;;;5057024;28;20348;-78
2022/07/27 03:40:14;;;;;;;;;;;;;;;;;;5055539;28;19927;-78
2022/07/27 03:42:40;;;;;;;;;;;;;;;;;;5055511;28;19920;-77
2022/07/27 03:45:05;;;;;;;;;;;;;;;;;;5055471;28;20009;-78
2022/07/27 03:47:31;;;;;;;;;;;;;;;;;;5055221;28;19975;-77
2022/07/27 03:49:56;;;;;;;;;;;;;;;;;;5056516;28;19913;-78
2022/07/27 03:52:22;;;;;;;;;;;;;;;;;;5055273;28;20297;-77
2022/07/27 03:54:47;;;;;;;;;;;;;;;;;;5055160;28;20007;-78
2022/07/27 03:57:13;;;;;;;;;;;;;;;;;;5055040;28;19925;-77
2022/07/27 03:59:38;;;;;;;;;;;;;;;;;;5056552;28;19917;-77
2022/07/27 04:02:03;;;;;;;;;;;;;;;;;;5057147;28;19917;-77
2022/07/27 04:04:29;;;;;;;;;;;;;;;;;;5056668;28;20057;-77
2022/07/27 04:06:54;;;;;;;;;;;;;;;;;;5056675;28;19947;-77
2022/07/27 04:09:19;;;;;;;;;;;;;;;;;;5055162;28;19920;-78
2022/07/27 04:11:44;;;;;;;;;;;;;;;;;;5056243;28;19938;-78
2022/07/27 04:14:10;;;;;;;;;;;;;;;;;;5056516;28;19924;-78
2022/07/27 04:16:35;;;;;;;;;;;;;;;;;;5056407;28;20015;-78
2022/07/27 04:19:00;;;;;;;;;;;;;;;;;;5056030;28;19913;-78
2022/07/27 04:21:26;;;;;;;;;;;;;;;;;;5056292;28;19959;-77
2022/07/27 04:23:52;;;;;;;;;;;;;;;;;;5056100;28;19923;-77
2022/07/27 04:26:17;;;;;;;;;;;;;;;;;;5055895;28;19932;-78
2022/07/27 04:28:42;;;;;;;;;;;;;;;;;;5056071;28;19980;-77
2022/07/27 04:31:07;;;;;;;;;;;;;;;;;;5056388;28;19917;-78
2022/07/27 04:33:33;;;;;;;;;;;;;;;;;;5056860;28;19917;-77
2022/07/27 04:35:58;;;;;;;;;;;;;;;;;;5056538;28;20395;-78
2022/07/27 04:38:23;;;;;;;;;;;;;;;;;;5055280;28;19916;-77
2022/07/27 04:40:49;;;;;;;;;;;;;;;;;;5038336;28;20283;-77
2022/07/27 04:43:14;;;;;;;;;;;;;;;;;;5056187;28;20019;-78
2022/07/27 04:45:39;;;;;;;;;;;;;;;;;;5056379;28;19952;-78
2022/07/27 04:48:05;;;;;;;;;;;;;;;;;;5038456;28;19920;-78
2022/07/27 04:50:30;;;;;;;;;;;;;;;;;;5055085;28;19912;-78
2022/07/27 04:52:56;;;;;;;;;;;;;;;;;;5056632;28;19963;-78
2022/07/27 04:55:21;;;;;;;;;;;;;;;;;;5056700;28;19917;-78
2022/07/27 04:57:47;;;;;;;;;;;;;;;;;;5056383;28;19955;-78
2022/07/27 05:00:12;;;;;;;;;;;;;;;;;;5054835;28;20024;-78
2022/07/27 05:02:38;;;;;;;;;;;;;;;;;;5054877;28;19913;-77
2022/07/27 05:05:03;;;;;;;;;;;;;;;;;;5055993;28;19917;-79
2022/07/27 05:07:29;;;;;;;;;;;;;;;;;;5056013;28;20015;-79
2022/07/27 05:09:54;;;;;;;;;;;;;;;;;;5056310;28;19963;-79
2022/07/27 05:12:20;;;;;;;;;;;;;;;;;;5055912;28;19939;-79
2022/07/27 05:14:45;;;;;;;;;;;;;;;;;;5056108;28;19928;-79
2022/07/27 05:17:11;;;;;;;;;;;;;;;;;;5056138;28;20446;-79
2022/07/27 05:19:36;;;;;;;;;;;;;;;;;;5056264;28;19963;-79
2022/07/27 05:22:01;;;;;;;;;;;;;;;;;;5056033;28;19940;-78
2022/07/27 05:24:27;;;;;;;;;;;;;;;;;;5054332;28;19917;-78
2022/07/27 05:26:52;;;;;;;;;;;;;;;;;;5055392;28;19925;-80
2022/07/27 05:29:17;;;;;;;;;;;;;;;;;;5055820;28;19928;-80
2022/07/27 05:31:42;;;;;;;;;;;;;;;;;;5054626;28;20348;-79
2022/07/27 05:34:08;;;;;;;;;;;;;;;;;;5055975;28;19924;-79
2022/07/27 05:36:33;;;;;;;;;;;;;;;;;;5055698;28;19960;-77
2022/07/27 05:38:58;;;;;;;;;;;;;;;;;;5055243;28;19921;-77
2022/07/27 05:41:24;;;;;;;;;;;;;;;;;;5055523;28;19917;-77
2022/07/27 05:43:49;;;;;;;;;;;;;;;;;;5053900;28;19917;-77
2022/07/27 05:46:15;;;;;;;;;;;;;;;;;;5053916;28;19916;-77
2022/07/27 05:48:40;;;;;;;;;;;;;;;;;;5054149;28;20423;-78
2022/07/27 05:51:05;;;;;;;;;;;;;;;;;;5055125;28;19921;-78
2022/07/27 05:53:31;;;;;;;;;;;;;;;;;;5054379;28;20299;-78
2022/07/27 05:55:56;;;;;;;;;;;;;;;;;;5037066;28;19920;-78
2022/07/27 05:58:21;;;;;;;;;;;;;;;;;;5054941;28;19924;-79
2022/07/27 06:00:47;;;;;;;;;;;;;;;;;;5054041;28;19916;-78
2022/07/27 06:03:12;;;;;;;;;;;;;;;;;;5053735;28;19913;-79
2022/07/27 06:05:37;;;;;;;;;;;;;;;;;;5036968;28;19917;-78
2022/07/27 06:08:07;;;;;;;;;;;;;;;;;;5055060;28;20321;-78
2022/07/27 06:10:33;;;;;;;;;;;;;;;;;;5055312;28;19928;-78
2022/07/27 06:12:58;;;;;;;;;;;;;;;;;;5054025;28;19913;-80
2022/07/27 06:15:23;;;;;;;;;;;;;;;;;;5037208;28;19913;-80
2022/07/27 06:17:51;;;;;;;;;;;;;;;;;;5056714;28;19924;-80
2022/07/27 06:20:17;;;;;;;;;;;;;;;;;;5062253;28;19916;-79
2022/07/27 06:22:45;;;;;;;;;;;;;;;;;;5051508;28;19920;-82
2022/07/27 06:25:11;;;;;;;;;;;;;;;;;;5052847;28;19925;-82
2022/07/27 06:27:37;;;;;;;;;;;;;;;;;;5054238;28;19928;-82
2022/07/27 06:30:03;;;;;;;;;;;;;;;;;;5036893;28;20371;-80
2022/07/27 06:32:28;;;;;;;;;;;;;;;;;;5054656;28;20011;-80
2022/07/27 06:34:53;;;;;;;;;;;;;;;;;;5053838;28;20382;-80
2022/07/27 06:37:19;;;;;;;;;;;;;;;;;;5054293;28;19917;-80
2022/07/27 06:39:45;;;;;;;;;;;;;;;;;;5054849;28;20015;-79
2022/07/27 06:42:13;;;;;;;;;;;;;;;;;;5054682;28;19917;-79
2022/07/27 06:44:38;;;;;;;;;;;;;;;;;;5053836;28;20367;-79
2022/07/27 06:47:03;;;;;;;;;;;;;;;;;;5054245;28;19960;-80
2022/07/27 06:49:29;;;;;;;;;;;;;;;;;;5054462;28;20323;-81
2022/07/27 06:51:54;;;;;;;;;;;;;;;;;;5054793;28;19920;-81
2022/07/27 06:54:19;;;;;;;;;;;;;;;;;;5054623;28;19931;-80
2022/07/27 06:56:45;;;;;;;;;;;;;;;;;;5054416;28;19970;-78
2022/07/27 06:59:10;;;;;;;;;;;;;;;;;;5056302;28;19962;-79
2022/07/27 07:01:36;;;;;;;;;;;;;;;;;;5055091;28;19921;-78
2022/07/27 07:04:01;;;;;;;;;;;;;;;;;;5054002;28;20348;-79
2022/07/27 07:06:26;;;;;;;;;;;;;;;;;;5052343;28;20006;-79
2022/07/27 07:08:52;;;;;;;;;;;;;;;;;;5052785;28;20294;-79
2022/07/27 07:11:17;;;;;;;;;;;;;;;;;;5052650;28;19917;-78
2022/07/27 07:13:42;;;;;;;;;;;;;;;;;;5052751;28;19917;-80
2022/07/27 07:16:08;;;;;;;;;;;;;;;;;;5053013;28;20008;-80
2022/07/27 07:18:33;;;;;;;;;;;;;;;;;;5054804;28;19920;-82
2022/07/27 07:20:58;;;;;;;;;;;;;;;;;;5052994;28;19956;-78
2022/07/27 07:23:23;;;;;;;;;;;;;;;;;;5053893;28;20346;-78
2022/07/27 07:25:49;;;;;;;;;;;;;;;;;;5052507;28;19970;-78
2022/07/27 07:28:14;;;;;;;;;;;;;;;;;;5053721;28;19924;-78
2022/07/27 07:30:39;;;;;;;;;;;;;;;;;;5054055;28;20379;-78
2022/07/27 07:33:05;;;;;;;;;;;;;;;;;;5053913;28;19966;-79
2022/07/27 07:35:30;;;;;;;;;;;;;;;;;;5053958;28;20287;-78
2022/07/27 07:37:55;;;;;;;;;;;;;;;;;;5053800;28;19926;-79
2022/07/27 07:40:20;;;;;;;;;;;;;;;;;;5054008;28;20295;-78
2022/07/27 07:42:51;;;;;;;;;;;;;;;;;;5060290;28;20442;-79
2022/07/27 07:45:16;;;;;;;;;;;;;;;;;;5070736;28;19913;-79
2022/07/27 07:47:42;;;;;;;;;;;;;;;;;;5055313;28;20409;-78
2022/07/27 07:50:07;;;;;;;;;;;;;;;;;;5053800;28;19917;-77
2022/07/27 07:52:32;;;;;;;;;;;;;;;;;;5052410;28;19967;-75
2022/07/27 07:54:58;;;;;;;;;;;;;;;;;;5054237;28;20223;-77
2022/07/27 07:57:23;;;;;;;;;;;;;;;;;;5036324;28;19913;-77
2022/07/27 07:59:48;;;;;;;;;;;;;;;;;;5052610;28;19913;-78
2022/07/27 08:02:14;;;;;;;;;;;;;;;;;;5052344;28;19916;-79
2022/07/27 08:04:39;;;;;;;;;;;;;;;;;;5052742;28;20283;-76
2022/07/27 08:07:05;;;;;;;;;;;;;;;;;;5053685;28;19925;-78
2022/07/27 08:09:30;;;;;;;;;;;;;;;;;;5054673;28;19917;-78
2022/07/27 08:11:55;;;;;;;;;;;;;;;;;;5051970;28;19917;-77
2022/07/27 08:14:22;;;;;;;;;;;;;;;;;;5053523;28;19966;-77
2022/07/27 08:16:47;;;;;;;;;;;;;;;;;;5054154;28;19967;-77
2022/07/27 08:19:12;;;;;;;;;;;;;;;;;;5057965;28;19917;-77
2022/07/27 08:21:38;;;;;;;;;;;;;;;;;;5056825;28;20012;-77
2022/07/27 08:24:03;;;;;;;;;;;;;;;;;;5056947;28;19921;-77
2022/07/27 08:26:29;;;;;;;;;;;;;;;;;;5056725;28;19925;-77
2022/07/27 08:28:54;;;;;;;;;;;;;;;;;;5056962;28;19964;-77
2022/07/27 08:31:19;;;;;;;;;;;;;;;;;;5055490;28;20364;-77
2022/07/27 08:33:44;;;;;;;;;;;;;;;;;;5056655;28;19921;-78
2022/07/27 08:36:10;;;;;;;;;;;;;;;;;;5056597;28;19917;-77
2022/07/27 08:38:35;;;;;;;;;;;;;;;;;;5055311;28;19917;-77
2022/07/27 08:41:01;;;;;;;;;;;;;;;;;;5055352;28;19923;-77
2022/07/27 08:43:26;;;;;;;;;;;;;;;;;;5057032;28;19913;-77
2022/07/27 08:45:56;;;;;;;;;;;;;;;;;;5055259;28;19912;-77
2022/07/27 08:48:23;;;;;;;;;;;;;;;;;;5056325;28;19924;-77
2022/07/27 08:50:48;;;;;;;;;;;;;;;;;;5055217;28;19913;-77
2022/07/27 08:53:15;;;;;;;;;;;;;;;;;;5056239;28;19916;-77
2022/07/27 08:55:42;;;;;;;;;;;;;;;;;;5056790;28;19920;-76
2022/07/27 08:58:07;;;;;;;;;;;;;;;;;;5055404;28;19963;-77
2022/07/27 09:00:33;;;;;;;;;;;;;;;;;;5038461;28;20363;-76
2022/07/27 09:02:59;;;;;;;;;;;;;;;;;;5056557;28;19940;-77
2022/07/27 09:05:24;;;;;;;;;;;;;;;;;;5054980;28;19920;-76
2022/07/27 09:07:49;;;;;;;;;;;;;;;;;;5064562;28;19923;-77
2022/07/27 09:10:28;;;;;;;;;;;;;;;;;;5059564;28;19967;-77
2022/07/27 09:12:53;;;;;;;;;;;;;;;;;;5054914;28;19912;-77
2022/07/27 09:15:18;;;;;;;;;;;;;;;;;;5054917;28;19917;-77
2022/07/27 09:17:45;;;;;;;;;;;;;;;;;;5055879;28;19916;-77
2022/07/27 09:20:15;;;;;;;;;;;;;;;;;;5055882;28;19917;-78
2022/07/27 09:22:40;;;;;;;;;;;;;;;;;;5054559;28;19996;-78
2022/07/27 09:25:06;;;;;;;;;;;;;;;;;;5055952;28;20339;-78
2022/07/27 09:27:32;;;;;;;;;;;;;;;;;;5054596;28;19932;-78
2022/07/27 09:30:02;;;;;;;;;;;;;;;;;;5055904;28;20337;-77
2022/07/27 09:32:27;;;;;;;;;;;;;;;;;;5054387;28;19913;-77
2022/07/27 09:34:53;;;;;;;;;;;;;;;;;;5037743;28;20385;-77
2022/07/27 09:37:25;;;;;;;;;;;;;;;;;;5055312;28;19917;-77
2022/07/27 09:40:08;;;;;;;;;;;;;;;;;;5054387;28;19979;-77
2022/07/27 09:42:33;;;;;;;;;;;;;;;;;;5054217;28;19912;-77
2022/07/27 09:44:58;;;;;;;;;;;;;;;;;;5054067;28;19923;-78
2022/07/27 09:47:27;;;;;;;;;;;;;;;;;;5037310;28;19921;-77
2022/07/27 09:49:54;;;;;;;;;;;;;;;;;;5054634;28;19920;-77
2022/07/27 09:52:25;;;;;;;;;;;;;;;;;;5055520;28;19923;-77
2022/07/27 09:54:50;;;;;;;;;;;;;;;;;;5037226;28;19924;-77
2022/07/27 09:57:17;;;;;;;;;;;;;;;;;;5055131;28;19921;-77
2022/07/27 09:59:42;;;;;;;;;;;;;;;;;;5053901;28;19912;-77
2022/07/27 10:02:08;;;;;;;;;;;;;;;;;;5053897;28;20355;-78
2022/07/27 10:04:33;;;;;;;;;;;;;;;;;;5053723;28;19924;-78
2022/07/27 10:06:59;;;;;;;;;;;;;;;;;;5053681;28;19923;-78
2022/07/27 10:09:24;;;;;;;;;;;;;;;;;;5053643;28;20334;-78
2022/07/27 10:11:50;;;;;;;;;;;;;;;;;;5053607;28;19917;-78
2022/07/27 10:14:15;;;;;;;;;;;;;;;;;;5053614;28;19963;-77
2022/07/27 10:16:41;;;;;;;;;;;;;;;;;;5053888;28;19958;-78
2022/07/27 10:19:25;;;;;;;;;;;;;;;;;;5054902;28;20371;-78
2022/07/27 10:21:50;;;;;;;;;;;;;;;;;;5036801;28;20011;-77
2022/07/27 10:24:24;;;;;;;;;;;;;;;;;;5053370;28;19978;-78
2022/07/27 10:26:49;;;;;;;;;;;;;;;;;;5036458;28;20441;-78
2022/07/27 10:29:16;;;;;;;;;;;;;;;;;;5054541;28;19929;-78
2022/07/27 10:31:43;;;;;;;;;;;;;;;;;;5041026;28;19912;-77
2022/07/27 10:34:09;;;;;;;;;;;;;;;;;;5065044;28;19917;-78
2022/07/27 10:36:34;;;;;;;;;;;;;;;;;;5055445;28;20413;-79
2022/07/27 10:39:08;;;;;;;;;;;;;;;;;;5054690;28;19991;-80
2022/07/27 10:41:36;;;;;;;;;;;;;;;;;;5052708;28;19916;-78
2022/07/27 10:44:15;;;;;;;;;;;;;;;;;;5035978;28;19913;-79
2022/07/27 10:46:45;;;;;;;;;;;;;;;;;;5053674;28;19912;-79
2022/07/27 10:49:20;;;;;;;;;;;;;;;;;;5052731;28;20351;-80
2022/07/27 10:51:45;;;;;;;;;;;;;;;;;;5036202;28;19928;-79
2022/07/27 10:54:34;;;;;;;;;;;;;;;;;;5037261;28;19917;-80
2022/07/27 10:57:00;;;;;;;;;;;;;;;;;;5046440;28;19927;-81
2022/07/27 10:59:37;;;;;;;;;;;;;;;;;;5052220;28;19921;-83
2022/07/27 11:02:03;;;;;;;;;;;;;;;;;;5051906;28;19920;-80
2022/07/27 11:04:28;;;;;;;;;;;;;;;;;;5054143;28;19917;-81
2022/07/27 11:06:54;;;;;;;;;;;;;;;;;;5053257;28;19925;-81
2022/07/27 11:09:19;;;;;;;;;;;;;;;;;;5036030;28;19917;-81
2022/07/27 11:11:45;;;;;;;;;;;;;;;;;;5052174;28;20367;-80
2022/07/27 11:14:10;;;;;;;;;;;;;;;;;;5053083;28;19917;-79
2022/07/27 11:16:35;;;;;;;;;;;;;;;;;;5052725;28;19924;-82
2022/07/27 11:19:03;;;;;;;;;;;;;;;;;;5052740;28;20291;-82
2022/07/27 11:21:28;;;;;;;;;;;;;;;;;;5035503;28;19988;-81
2022/07/27 11:23:56;;;;;;;;;;;;;;;;;;5052228;28;19917;-81
2022/07/27 11:26:22;;;;;;;;;;;;;;;;;;5052303;28;20279;-78
2022/07/27 11:28:47;;;;;;;;;;;;;;;;;;5052495;28;20392;-79
2022/07/27 11:31:13;;;;;;;;;;;;;;;;;;5054225;28;20009;-78
2022/07/27 11:33:51;;;;;;;;;;;;;;;;;;5052629;28;19923;-76
2022/07/27 11:36:17;;;;;;;;;;;;;;;;;;5053755;28;20314;-77
2022/07/27 11:38:46;;;;;;;;;;;;;;;;;;5052766;28;19913;-76
2022/07/27 11:41:19;;;;;;;;;;;;;;;;;;5053318;28;19963;-77
2022/07/27 11:43:45;;;;;;;;;;;;;;;;;;5052961;28;19913;-76
2022/07/27 11:46:16;;;;;;;;;;;;;;;;;;5054159;28;20344;-78
2022/07/27 11:48:52;;;;;;;;;;;;;;;;;;5052362;28;20011;-77
2022/07/27 11:51:18;;;;;;;;;;;;;;;;;;5054116;28;19913;-77
2022/07/27 11:53:43;;;;;;;;;;;;;;;;;;5056967;28;19919;-77
2022/07/27 11:56:09;;;;;;;;;;;;;;;;;;5056219;28;19923;-77
2022/07/27 11:58:54;;;;;;;;;;;;;;;;;;5057738;28;19917;-77
2022/07/27 12:01:26;;;;;;;;;;;;;;;;;;5040303;28;19982;-78
2022/07/27 12:04:04;;;;;;;;;;;;;;;;;;5057594;28;19924;-78
2022/07/27 12:06:33;;;;;;;;;;;;;;;;;;5056479;28;19913;-77
2022/07/27 12:09:00;;;;;;;;;;;;;;;;;;5055929;28;19940;-77
2022/07/27 12:11:29;;;;;;;;;;;;;;;;;;5055917;28;19979;-77
2022/07/27 12:13:58;;;;;;;;;;;;;;;;;;5055887;28;20446;-77
2022/07/27 12:16:23;;;;;;;;;;;;;;;;;;5056193;28;20011;-77
2022/07/27 12:18:48;;;;;;;;;;;;;;;;;;5057181;28;19955;-77
2022/07/27 12:21:17;;;;;;;;;;;;;;;;;;5055846;28;19917;-77
2022/07/27 12:23:51;;;;;;;;;;;;;;;;;;5055679;28;20046;-77
2022/07/27 12:26:17;;;;;;;;;;;;;;;;;;5038882;28;19921;-78
2022/07/27 12:28:43;;;;;;;;;;;;;;;;;;5057222;28;20399;-77
2022/07/27 12:31:15;;;;;;;;;;;;;;;;;;5057763;28;19924;-77
2022/07/27 12:33:41;;;;;;;;;;;;;;;;;;5057051;28;20282;-77
2022/07/27 12:36:06;;;;;;;;;;;;;;;;;;5039165;28;19912;-77
2022/07/27 12:38:36;;;;;;;;;;;;;;;;;;5056031;28;19917;-77
2022/07/27 12:41:01;;;;;;;;;;;;;;;;;;5038711;28;20260;-77
2022/07/27 12:43:26;;;;;;;;;;;;;;;;;;5056829;28;19924;-78
2022/07/27 12:45:52;;;;;;;;;;;;;;;;;;5057003;28;19978;-78
2022/07/27 12:48:24;;;;;;;;;;;;;;;;;;5056455;28;19920;-78
2022/07/27 12:51:02;;;;;;;;;;;;;;;;;;5038571;28;20004;-79
2022/07/27 12:53:28;;;;;;;;;;;;;;;;;;5055414;28;20367;-78
2022/07/27 12:55:54;;;;;;;;;;;;;;;;;;5055333;28;19924;-77
2022/07/27 12:58:19;;;;;;;;;;;;;;;;;;5056715;28;19917;-77
2022/07/27 13:00:44;;;;;;;;;;;;;;;;;;5055105;28;19956;-77
2022/07/27 13:03:10;;;;;;;;;;;;;;;;;;5055111;28;19917;-77
2022/07/27 13:05:38;;;;;;;;;;;;;;;;;;5054706;28;19939;-77
2022/07/27 13:08:03;;;;;;;;;;;;;;;;;;5056192;28;19956;-77
2022/07/27 13:10:29;;;;;;;;;;;;;;;;;;5038508;28;19920;-76
2022/07/27 13:12:54;;;;;;;;;;;;;;;;;;5056020;28;19985;-77
2022/07/27 13:15:19;;;;;;;;;;;;;;;;;;5054752;28;19943;-77
2022/07/27 13:17:45;;;;;;;;;;;;;;;;;;5054958;28;20424;-77
2022/07/27 13:20:11;;;;;;;;;;;;;;;;;;5054754;28;19994;-78
2022/07/27 13:22:37;;;;;;;;;;;;;;;;;;5037952;28;19940;-78
2022/07/27 13:25:02;;;;;;;;;;;;;;;;;;5055906;28;20371;-79
2022/07/27 13:27:28;;;;;;;;;;;;;;;;;;5042521;28;19924;-78
2022/07/27 13:29:53;;;;;;;;;;;;;;;;;;5056314;28;19917;-78
2022/07/27 13:32:18;;;;;;;;;;;;;;;;;;5054999;28;20252;-77
2022/07/27 13:34:44;;;;;;;;;;;;;;;;;;5054632;28;20421;-80
2022/07/27 13:37:09;;;;;;;;;;;;;;;;;;5055074;28;19917;-79
2022/07/27 13:39:34;;;;;;;;;;;;;;;;;;5054452;28;20387;-78
2022/07/27 13:41:59;;;;;;;;;;;;;;;;;;5054438;28;19916;-80
2022/07/27 13:44:25;;;;;;;;;;;;;;;;;;5055398;28;20011;-78
2022/07/27 13:46:50;;;;;;;;;;;;;;;;;;5054469;28;19940;-79
2022/07/27 13:49:16;;;;;;;;;;;;;;;;;;5037392;28;19924;-79
2022/07/27 13:51:41;;;;;;;;;;;;;;;;;;5054011;28;20292;-78
2022/07/27 13:54:07;;;;;;;;;;;;;;;;;;5054215;28;19928;-79
2022/07/27 13:56:33;;;;;;;;;;;;;;;;;;5055483;28;20004;-79
2022/07/27 13:58:59;;;;;;;;;;;;;;;;;;5055120;28;20402;-79
2022/07/27 14:01:25;;;;;;;;;;;;;;;;;;5054216;28;19913;-79
2022/07/27 14:03:50;;;;;;;;;;;;;;;;;;5037174;28;20469;-79
2022/07/27 14:06:16;;;;;;;;;;;;;;;;;;5053793;28;19955;-78
2022/07/27 14:08:41;;;;;;;;;;;;;;;;;;5053644;28;20015;-78
2022/07/27 14:11:06;;;;;;;;;;;;;;;;;;5054772;28;19956;-79
2022/07/27 14:13:32;;;;;;;;;;;;;;;;;;5054511;28;19917;-78
2022/07/27 14:15:57;;;;;;;;;;;;;;;;;;5053584;28;19917;-78
2022/07/27 14:18:27;;;;;;;;;;;;;;;;;;5053555;28;19999;-77
2022/07/27 14:20:53;;;;;;;;;;;;;;;;;;5036907;28;19912;-77
2022/07/27 14:23:18;;;;;;;;;;;;;;;;;;5036748;28;19913;-78
2022/07/27 14:25:43;;;;;;;;;;;;;;;;;;5054826;28;19921;-79
2022/07/27 14:28:08;;;;;;;;;;;;;;;;;;5053283;28;19924;-78
2022/07/27 14:30:34;;;;;;;;;;;;;;;;;;5053700;28;20426;-78
2022/07/27 14:33:01;;;;;;;;;;;;;;;;;;5054879;28;19913;-78
2022/07/27 14:35:27;;;;;;;;;;;;;;;;;;5053342;28;19917;-78
2022/07/27 14:37:52;;;;;;;;;;;;;;;;;;5053265;28;20031;-79
2022/07/27 14:40:17;;;;;;;;;;;;;;;;;;5053467;28;19916;-78
2022/07/27 14:42:42;;;;;;;;;;;;;;;;;;5054376;28;20303;-79
2022/07/27 14:45:08;;;;;;;;;;;;;;;;;;5053068;28;19917;-77
2022/07/27 14:47:33;;;;;;;;;;;;;;;;;;5054114;28;19921;-76
2022/07/27 14:49:58;;;;;;;;;;;;;;;;;;5053486;28;19952;-76
2022/07/27 14:52:24;;;;;;;;;;;;;;;;;;5055527;28;19975;-77
2022/07/27 14:54:49;;;;;;;;;;;;;;;;;;5056494;28;19920;-77
2022/07/27 14:57:14;;;;;;;;;;;;;;;;;;5053186;28;19913;-78
2022/07/27 14:59:40;;;;;;;;;;;;;;;;;;5053113;28;19912;-77
2022/07/27 15:02:05;;;;;;;;;;;;;;;;;;5036165;28;19974;-76
2022/07/27 15:04:31;;;;;;;;;;;;;;;;;;5054308;28;20279;-77
2022/07/27 15:06:57;;;;;;;;;;;;;;;;;;5036006;28;19963;-76
2022/07/27 15:09:23;;;;;;;;;;;;;;;;;;5054333;28;20353;-77
2022/07/27 15:11:48;;;;;;;;;;;;;;;;;;5052734;28;20337;-77
2022/07/27 15:14:15;;;;;;;;;;;;;;;;;;5052964;28;19917;-78
2022/07/27 15:16:40;;;;;;;;;;;;;;;;;;5052690;28;19912;-78
2022/07/27 15:19:06;;;;;;;;;;;;;;;;;;5054060;28;20283;-78
2022/07/27 15:21:32;;;;;;;;;;;;;;;;;;5053813;28;19962;-78
2022/07/27 15:23:57;;;;;;;;;;;;;;;;;;5053770;28;19985;-78
2022/07/27 15:26:22;;;;;;;;;;;;;;;;;;5053073;28;20333;-79
2022/07/27 15:28:47;;;;;;;;;;;;;;;;;;5052414;28;19927;-78
2022/07/27 15:31:13;;;;;;;;;;;;;;;;;;5052698;28;19950;-78
2022/07/27 15:33:38;;;;;;;;;;;;;;;;;;5052433;28;19923;-78
2022/07/27 15:36:03;;;;;;;;;;;;;;;;;;5052507;28;19917;-78
2022/07/27 15:38:29;;;;;;;;;;;;;;;;;;5052581;28;19923;-78
2022/07/27 15:40:54;;;;;;;;;;;;;;;;;;5053883;28;19921;-77
2022/07/27 15:43:19;;;;;;;;;;;;;;;;;;5052653;28;19917;-78
2022/07/27 15:45:46;;;;;;;;;;;;;;;;;;5052660;28;20340;-78
2022/07/27 15:48:12;;;;;;;;;;;;;;;;;;5052395;28;20011;-78
2022/07/27 15:50:40;;;;;;;;;;;;;;;;;;5052298;28;19951;-78
2022/07/27 15:53:05;;;;;;;;;;;;;;;;;;5052334;28;19971;-77
2022/07/27 15:55:31;;;;;;;;;;;;;;;;;;5053782;28;19921;-77
2022/07/27 15:57:56;;;;;;;;;;;;;;;;;;5052216;28;19913;-77
2022/07/27 16:00:22;;;;;;;;;;;;;;;;;;5053335;28;19939;-78
2022/07/27 16:02:47;;;;;;;;;;;;;;;;;;5052452;28;19916;-78
2022/07/27 16:05:13;;;;;;;;;;;;;;;;;;5053328;28;19917;-78
2022/07/27 16:07:38;;;;;;;;;;;;;;;;;;5052002;28;20368;-78
2022/07/27 16:10:03;;;;;;;;;;;;;;;;;;5035407;28;20360;-78
2022/07/27 16:12:29;;;;;;;;;;;;;;;;;;5051944;28;19930;-78
2022/07/27 16:14:54;;;;;;;;;;;;;;;;;;5053469;28;19917;-77
2022/07/27 16:17:19;;;;;;;;;;;;;;;;;;5053008;28;20291;-77
2022/07/27 16:19:44;;;;;;;;;;;;;;;;;;5035439;28;20009;-77
2022/07/27 16:22:10;;;;;;;;;;;;;;;;;;5056577;28;19921;-78
2022/07/27 16:24:35;;;;;;;;;;;;;;;;;;5053330;28;19925;-78
2022/07/27 16:27:01;;;;;;;;;;;;;;;;;;5052006;28;19924;-77
2022/07/27 16:29:26;;;;;;;;;;;;;;;;;;5051998;28;19974;-77
2022/07/27 16:31:56;;;;;;;;;;;;;;;;;;5053151;28;19917;-77
2022/07/27 16:34:22;;;;;;;;;;;;;;;;;;5052029;28;20363;-78
2022/07/27 16:36:48;;;;;;;;;;;;;;;;;;5052399;28;19923;-78
2022/07/27 16:39:13;;;;;;;;;;;;;;;;;;5056054;28;19924;-78